Home > Products > Valid Products > SSM

000
SMZS01 NSTU 090557
SSMPPG
AAXX 09064
91765 32469 49903 10304 20251 30061 40064 53007 83101 333 56399
70000 555 90906=




000
SMZS01 NSTU 082351
SSMPPG
AAXX 09004
91765 32569 31109 10344 20269 30068 40071 57012 82101 333 20263
562/9 59009 555 90900=




000
SMZS01 NSTU 082351
SSMPPG
AAXX 09004
91765 32569 31109 10344 20269 30068 40071 57012 82101 333 20263
562/9 59009 555 90900=




000
SMZS01 NSTU 081753
SSMPPG
AAXX 08184
91765 32467 20000 10269 20248 30075 40078 51012 82100 333 569// 555
90818=




000
SMZS01 NSTU 081209
SSMPPG
AAXX 08124
91765 32566 69904 10284 20259 30080 40083 56010 82170 333 10343
5699/ 59012 555 90812=




000
SMZS01 NSTU 080554
SSMPPG
AAXX 08064
91765 32569 21007 10293 20258 30073 40076 53008 82100 333 56299
70000 555 90806=




000
SMZS01 NSTU 080554
SSMPPG
AAXX 08064
91765 32569 21007 10293 20258 30073 40076 53008 82100 333 56299
70000 555 90806=




000
SMZS01 NSTU 080018
SSMPPG
AAXX 08004
91765 32569 21012 10339 20271 30076 40080 57019 82100 333 20282
562// 59013 555 90800=




000
SMZS01 NSTU 071753
SSMPPG
AAXX 07184
91765 32469 51008 10285 20262 30090 40093 51008 83101 333 562/9 555
90718=




000
SMZS01 NSTU 071753
SSMPPG
AAXX 07184
91765 32469 51008 10285 20262 30090 40093 51008 83101 333 562/9 555
90718=




000
SMZS01 NSTU 071159
SSMPPG
AAXX 07124
91765 32566 59903 10286 20264 30091 40095 57003 83170 333 10334
5699/ 59008 555 90712=




000
SMZS01 NSTU 070614
SSMPPG
AAXX 07064
91765 32469 61010 10295 20265 30081 40085 51005 83108 333 562/9
70000 555 90706=




000
SMZS01 NSTU 070614
SSMPPG
AAXX 07064
91765 32469 61010 10295 20265 30081 40085 51005 83108 333 562/9
70000 555 90706=




000
SMZS01 NSTU 062354
SSMPPG
AAXX 07004
91765 32567 71111 10332 20272 30090 40093 57012 83474 333 20284
56299 58008 555 90700=




000
SMZS01 NSTU 062354
SSMPPG
AAXX 07004
91765 32567 71111 10332 20272 30090 40093 57012 83474 333 20284
56299 58008 555 90700=




000
SMZS01 NSTU 061754
SSMPPG
AAXX 06184
91765 32469 81014 10284 20261 30097 40100 52010 83878 333 56299 555
90618=




000
SMZS01 NSTU 061754
SSMPPG
AAXX 06184
91765 32469 81014 10284 20261 30097 40100 52010 83878 333 56299 555
90618=




000
SMZS01 NSTU 061155
SSMPPG
AAXX 06124
91765 32466 61114 10288 20265 30100 40103 55000 84870 333 10335
5629/ 58008 555 90612=




000
SMZS01 NSTU 061155
SSMPPG
AAXX 06124
91765 32466 61114 10288 20265 30100 40103 55000 84870 333 10335
5629/ 58008 555 90612=




    US Dept of Commerce
    National Oceanic and Atmospheric Administration
    National Weather Service
    1325 East West Highway
    Silver Spring, MD 20910
    Page Author: NWS Internet Services Team
Disclaimer
Information Quality
Credits
Glossary
Privacy Policy
Freedom of Information Act (FOIA)
About Us
Career Opportunities